Details From PAKT - KETCHIKAN INTL
To PAJN - Juneau Intl
Flight Number -
Tags generated
Created
Modified
Stats Distance 205 nm / 379 km
Max Altitude 22,600 ft / 6,888 m
Waypoints 3
Social Downloads 0
Likes 0
Share VATSIM

Download

Looking for another format? Having issues loading an existing format? Contact us
Advertisement - Login to hide

Notes

Basic altitude profile: - Ascent Rate: 1800ft/min - Ascent Speed: 200kts - Cruise Altitude: 6000ft - Cruise Speed: 200kts - Descent Rate: 1500ft/min - Descent Speed: 180kts Options: - Use NATs: yes - Use PACOTS: yes - Use low airways: yes - Use high airways: yes

Route

PAKT TURKS PAJN

ID Type Via Altitude Latitude Longitude Leg Dist Tot Dist Heading (true) Name
O PAKT APT - 0 ft / 0 m 55.35554˚ -131.71374˚ - 0 nm - KETCHIKAN INTL
TURKS FIX - 22,600 ft / 6,888 m 56.71661˚ -133.38462˚ 99 nm 99 nm 326° / 325° -
O PAJN APT - 0 ft / 0 m 58.35496˚ -134.57628˚ 105 nm 204 nm 339° / 338° Juneau Intl

Altitude Profile

Advertisement - Login to hide

Weather


0- 5 10 15 20 25 30 35+ Temperature / ° C

Clouds and Precipitation
Forecast for 2018-05-20 12:00 UTC. Updated 3 hours ago

Ground ~20,000 ft ~40,000 ft Winds

PAKT

Details ICAO PAKT (KTN)
Name KETCHIKAN INTL
Region USA (Alaska)
Timezone Unknown (UTC+0.0)
Stats Elevation 88 ft / 27 m (AMSL)
Location 55.355545° -131.713737°
Runways 1
Magnetic Variation 18.431° E

METAR

PAKT 201405Z 16009KT 10SM BKN018 OVC024 09/08 A2993

Decode

TAF

PAKT 201134Z 2012/2112 15007KT P6SM VCSH BKN020 OVC060 FM201800 14010KT P6SM VCSH SCT040 OVC050 FM202100 14013G23KT P6SM -RA SCT015 OVC025 FM210300 14012KT P6SM -RA SCT025 BKN035 OVC050 WS020/16035KT AMD LTD TO CLD VIS AND WIND 2012/2015

Decode

Departure Runways

ID Width Length Bearing (true) Bearing (mag) Surface Threshold Offset Overrun Length
11 150 ft / 46 m 7,485 ft / 2,281 m 135.66° 117.23° Asphalt 0 ft / 0 m 200 ft / 61 m
29 150 ft / 46 m 7,485 ft / 2,281 m 315.68° 297.25° Asphalt 0 ft / 0 m 100 ft / 30 m

PAJN

Details ICAO PAJN (JNU)
Name Juneau Intl
Region USA (Alaska)
Timezone America/Juneau (UTC-8.0)
Stats Elevation 21 ft / 6 m (AMSL)
Location 58.354964° -134.576278°
Runways 1
Magnetic Variation 19.023° E

METAR

PAJN 201353Z 10013KT 5SM -RA BR FEW009 BKN050 OVC090 09/08 A2985

Decode

TAF

PAJN 201128Z 2012/2112 09008KT P6SM -RA OVC060 FM201600 09006KT P6SM VCSH SCT030 BKN050 OVC070 FM201900 10014KT P6SM -RA SCT015 OVC040 FM210900 10015KT 5SM -RA BR SCT015 OVC030

Decode

Destination Runways

ID Width Length Bearing (true) Bearing (mag) Surface Threshold Offset Overrun Length
08 150 ft / 46 m 8,430 ft / 2,570 m 104.87° 85.85° Asphalt 0 ft / 0 m 450 ft / 137 m
26 150 ft / 46 m 8,430 ft / 2,570 m 284.90° 265.88° Asphalt 0 ft / 0 m 225 ft / 69 m

Approach Navaids

Runway Type Ident Frequency Range Bearing (true) Bearing (mag) Slope Elevation
08 Localiser IJDL 109.90 MHz 18 nm / 33 km 84.92° 65.90° - 21 ft / 6 m (AMSL)
08 DME IJDL 109.90 MHz 18 nm / 33 km - - - 175 ft / 53 m (AMSL)

Popular Alternatives